createdAt,value
2023-05-23T00:00:45.235Z,99980.31
2023-05-23T00:01:25.308Z,99984.09
2023-05-23T00:02:07.282Z,99956.56
2023-05-23T00:02:47.524Z,99971.66
2023-05-23T00:03:29.301Z,99979.84
2023-05-23T00:04:10.471Z,99961.56
2023-05-23T00:04:51.197Z,99963.34
2023-05-23T00:05:31.327Z,99962.31
2023-05-23T00:06:13.280Z,99966.94
2023-05-23T00:06:53.607Z,99953.91
2023-05-23T00:07:34.196Z,99946.88
2023-05-23T00:08:14.272Z,99951.59
2023-05-23T00:08:55.189Z,99975.78
2023-05-23T00:09:49.191Z,99977.53
2023-05-23T00:10:43.219Z,99950.38
2023-05-23T00:11:33.247Z,99975.50
2023-05-23T00:12:07.251Z,99963.94
2023-05-23T00:12:54.200Z,99960.63
2023-05-23T00:13:28.289Z,99969.78
2023-05-23T00:14:15.214Z,99974.88
2023-05-23T00:14:49.474Z,99949.25
2023-05-23T00:15:36.199Z,99948.00
2023-05-23T00:16:10.452Z,99939.78
2023-05-23T00:16:58.233Z,99956.41
2023-05-23T00:17:32.287Z,99950.09
2023-05-23T00:18:21.177Z,99945.81
2023-05-23T00:18:57.609Z,99937.44
2023-05-23T00:19:45.188Z,99957.53
2023-05-23T00:20:19.297Z,99957.03
2023-05-23T00:21:06.196Z,99951.78
2023-05-23T00:21:40.439Z,99959.59
2023-05-23T00:22:23.253Z,99959.69
2023-05-23T00:23:03.656Z,99972.25
2023-05-23T00:23:43.180Z,99955.25
2023-05-23T00:24:23.258Z,99980.72
2023-05-23T00:25:04.176Z,99967.06
2023-05-23T00:25:48.301Z,99981.09
2023-05-23T00:26:30.209Z,99971.41
2023-05-23T00:27:11.275Z,99956.75
2023-05-23T00:27:51.193Z,99946.22
2023-05-23T00:28:31.318Z,99967.78
2023-05-23T00:29:11.188Z,99979.00
2023-05-23T00:29:51.295Z,99955.56
2023-05-23T00:30:32.180Z,99943.06
2023-05-23T00:31:12.311Z,99968.00
2023-05-23T00:31:53.199Z,99966.47
2023-05-23T00:32:33.382Z,99946.84
2023-05-23T00:33:13.213Z,99954.13
2023-05-23T00:33:53.285Z,99968.09
2023-05-23T00:34:34.197Z,99967.69
2023-05-23T00:35:15.427Z,99972.72
2023-05-23T00:35:56.190Z,99971.00
2023-05-23T00:36:37.760Z,99967.16
2023-05-23T00:37:18.175Z,99947.50
2023-05-23T00:37:58.278Z,99936.66
2023-05-23T00:38:39.210Z,99941.94
2023-05-23T00:39:20.357Z,99963.53
2023-05-23T00:40:02.183Z,99963.25
2023-05-23T00:40:42.306Z,99954.38
2023-05-23T00:41:25.170Z,99957.06
2023-05-23T00:42:05.640Z,99944.19
2023-05-23T00:42:46.175Z,99945.50
2023-05-23T00:43:26.309Z,99953.16
2023-05-23T00:44:06.190Z,99967.69
2023-05-23T00:44:48.366Z,99971.44
2023-05-23T00:45:29.181Z,99944.19
2023-05-23T00:46:09.340Z,99944.75
2023-05-23T00:46:52.349Z,99969.34
2023-05-23T00:47:32.310Z,99961.13
2023-05-23T00:48:13.180Z,99963.13
2023-05-23T00:48:53.540Z,99979.88
2023-05-23T00:49:34.200Z,99961.38
2023-05-23T00:50:18.262Z,99978.81
2023-05-23T00:51:00.192Z,99972.06
2023-05-23T00:51:43.064Z,99958.34
2023-05-23T00:52:24.187Z,99980.56
2023-05-23T00:53:06.264Z,99959.78
2023-05-23T00:53:46.155Z,99982.25
2023-05-23T00:54:33.316Z,99964.06
2023-05-23T00:55:16.178Z,99968.28
2023-05-23T00:55:56.704Z,99972.72
2023-05-23T00:56:38.152Z,99966.94
2023-05-23T00:57:18.379Z,99964.72
2023-05-23T00:58:03.192Z,99975.09
2023-05-23T00:58:43.249Z,99961.97
2023-05-23T00:59:24.170Z,99955.56
2023-05-23T01:00:04.432Z,99965.44
2023-05-23T01:00:45.285Z,99954.34
2023-05-23T01:01:25.868Z,99943.97
2023-05-23T01:02:08.229Z,99943.31
2023-05-23T01:02:53.641Z,99947.22
2023-05-23T01:03:36.261Z,99970.19
2023-05-23T01:04:16.868Z,99963.56
2023-05-23T01:05:01.175Z,99969.09
2023-05-23T01:05:41.955Z,99967.22
2023-05-23T01:06:24.228Z,99949.97
2023-05-23T01:07:04.252Z,99937.91
2023-05-23T01:07:45.195Z,99970.38
2023-05-23T01:08:25.303Z,99968.66
2023-05-23T01:09:09.154Z,99943.19
2023-05-23T01:09:49.235Z,99968.25
2023-05-23T01:10:39.144Z,99966.34
2023-05-23T01:11:37.191Z,99950.34
2023-05-23T01:12:52.172Z,99956.84
2023-05-23T01:14:01.161Z,99959.06
2023-05-23T01:14:58.151Z,99963.94
2023-05-23T01:16:16.171Z,99933.78
2023-05-23T01:17:24.188Z,99947.84
2023-05-23T01:18:17.791Z,99936.81
2023-05-23T01:19:29.174Z,99959.72
2023-05-23T01:20:20.227Z,99957.03
2023-05-23T01:21:04.135Z,99959.22
2023-05-23T01:21:46.363Z,99959.13
2023-05-23T01:22:40.164Z,99956.69
2023-05-23T01:23:30.300Z,99957.34
2023-05-23T01:24:50.149Z,99955.72
2023-05-23T01:26:07.045Z,99952.31
2023-05-23T01:27:09.130Z,99934.50
2023-05-23T01:28:07.152Z,99947.25
2023-05-23T01:29:05.159Z,99938.25
2023-05-23T01:30:01.157Z,99946.59
2023-05-23T01:30:58.132Z,99944.00
2023-05-23T01:31:57.204Z,99928.53
2023-05-23T01:32:52.143Z,99948.59
2023-05-23T01:33:34.156Z,99924.91
2023-05-23T01:34:17.050Z,99933.59
2023-05-23T01:35:00.212Z,99939.81
2023-05-23T01:35:40.546Z,99923.72
2023-05-23T01:36:22.122Z,99938.97
2023-05-23T01:37:02.261Z,99928.47
2023-05-23T01:37:43.161Z,99940.19
2023-05-23T01:38:23.228Z,99932.84
2023-05-23T01:39:03.168Z,99910.47
2023-05-23T01:39:44.264Z,99921.31
2023-05-23T01:40:24.125Z,99927.75
2023-05-23T01:41:05.506Z,99918.34
2023-05-23T01:41:46.128Z,99927.28
2023-05-23T01:42:28.075Z,99927.09
2023-05-23T01:43:09.108Z,99912.34
2023-05-23T01:43:49.225Z,99925.63
2023-05-23T01:44:29.151Z,99921.72
2023-05-23T01:45:09.266Z,99914.94
2023-05-23T01:45:50.134Z,99914.47
2023-05-23T01:46:31.253Z,99913.97
2023-05-23T01:47:14.127Z,99910.56
2023-05-23T01:47:56.362Z,99921.41
2023-05-23T01:48:37.235Z,99923.31
2023-05-23T01:49:20.271Z,99922.00
2023-05-23T01:50:02.195Z,99908.38
2023-05-23T01:50:45.420Z,99919.53
2023-05-23T01:51:25.213Z,99920.22
2023-05-23T01:52:10.130Z,99927.00
2023-05-23T01:52:50.114Z,99912.91
2023-05-23T01:53:31.457Z,99928.22
2023-05-23T01:54:12.124Z,99924.16
2023-05-23T01:54:52.194Z,99910.06
2023-05-23T01:55:33.123Z,99924.03
2023-05-23T01:56:13.212Z,99932.53
2023-05-23T01:56:55.121Z,99924.53
2023-05-23T01:57:40.163Z,99911.31
2023-05-23T01:58:21.140Z,99920.75
2023-05-23T01:59:02.015Z,99915.53
2023-05-23T01:59:42.121Z,99892.94
2023-05-23T02:00:23.237Z,99930.53
2023-05-23T02:01:04.167Z,99931.38
2023-05-23T02:01:45.345Z,99906.69
2023-05-23T02:03:27.258Z,99929.72
2023-05-23T02:04:01.209Z,99921.97
2023-05-23T02:04:48.118Z,99904.91
2023-05-23T02:05:22.228Z,99906.91
2023-05-23T02:06:09.124Z,99916.75
2023-05-23T02:06:43.226Z,99915.06
2023-05-23T02:07:30.108Z,99906.06
2023-05-23T02:08:04.211Z,99933.13
2023-05-23T02:08:51.101Z,99900.84
2023-05-23T02:09:32.207Z,99906.06
2023-05-23T02:10:16.115Z,99910.69
2023-05-23T02:10:57.187Z,99911.53
2023-05-23T02:11:44.201Z,99910.75
2023-05-23T02:12:18.234Z,99917.91
2023-05-23T02:13:05.082Z,99918.56
2023-05-23T02:13:39.224Z,99908.75
2023-05-23T02:14:28.108Z,99917.59
2023-05-23T02:15:02.189Z,99920.63
2023-05-23T02:15:49.103Z,99906.88
2023-05-23T02:16:23.357Z,99922.66
2023-05-23T02:17:11.178Z,99907.53
2023-05-23T02:17:45.317Z,99895.75
2023-05-23T02:18:36.091Z,99904.59
2023-05-23T02:19:10.516Z,99910.06
2023-05-23T02:19:58.096Z,99907.66
2023-05-23T02:20:32.184Z,99911.53
2023-05-23T02:21:19.102Z,99914.44
2023-05-23T02:21:53.175Z,99901.75
2023-05-23T02:22:33.161Z,99919.91
2023-05-23T02:23:13.191Z,99903.31
2023-05-23T02:23:53.088Z,99894.09
2023-05-23T02:24:33.164Z,99910.59
2023-05-23T02:25:14.134Z,99914.78
2023-05-23T02:25:54.159Z,99886.66
2023-05-23T02:26:34.072Z,99897.22
2023-05-23T02:27:14.178Z,99891.63
2023-05-23T02:27:54.098Z,99899.94
2023-05-23T02:28:34.188Z,99909.75
2023-05-23T02:29:14.119Z,99915.88
2023-05-23T02:29:54.252Z,99910.91
2023-05-23T02:30:34.094Z,99903.94
2023-05-23T02:31:14.207Z,99892.22
2023-05-23T02:31:54.079Z,99906.25
2023-05-23T02:32:34.255Z,99893.19
2023-05-23T02:33:15.134Z,99911.56
2023-05-23T02:33:55.165Z,99882.69
2023-05-23T02:34:35.066Z,99883.28
2023-05-23T02:35:15.166Z,99880.00
2023-05-23T02:35:58.085Z,99896.69
2023-05-23T02:36:39.328Z,99893.63
2023-05-23T02:37:21.104Z,99891.09
2023-05-23T02:38:01.262Z,99906.88
2023-05-23T02:38:41.119Z,99897.06
2023-05-23T02:39:21.151Z,99885.16
2023-05-23T02:40:02.094Z,99897.00
2023-05-23T02:40:42.154Z,99900.28
2023-05-23T02:41:22.067Z,99900.59
2023-05-23T02:42:02.839Z,99899.91
2023-05-23T02:42:43.095Z,99882.72
2023-05-23T02:43:23.174Z,99877.63
2023-05-23T02:44:04.088Z,99874.72
2023-05-23T02:44:44.154Z,99873.56
2023-05-23T02:45:25.072Z,99890.91
2023-05-23T02:46:05.303Z,99870.00
2023-05-23T02:46:45.193Z,99867.47
2023-05-23T02:47:25.384Z,99877.66
2023-05-23T02:48:05.181Z,99875.59
2023-05-23T02:48:45.434Z,99895.50
2023-05-23T02:49:25.105Z,99884.09
2023-05-23T02:50:06.436Z,99884.94
2023-05-23T02:50:46.061Z,99893.97
2023-05-23T02:51:26.313Z,99865.53
2023-05-23T02:52:06.077Z,99869.69
2023-05-23T02:52:46.226Z,99883.75
2023-05-23T02:53:26.066Z,99866.38
2023-05-23T02:54:06.251Z,99876.44
2023-05-23T02:54:47.059Z,99869.59
2023-05-23T02:55:27.694Z,99880.34
2023-05-23T02:56:08.086Z,99862.81
2023-05-23T02:56:48.220Z,99869.59
2023-05-23T02:57:28.064Z,99878.94
2023-05-23T02:58:08.221Z,99876.91
2023-05-23T02:58:49.063Z,99864.31
2023-05-23T02:59:29.138Z,99858.38
2023-05-23T03:00:10.099Z,99880.81
2023-05-23T03:00:50.466Z,99857.13
2023-05-23T03:01:30.061Z,99881.78
2023-05-23T03:02:10.377Z,99877.19
2023-05-23T03:02:50.184Z,99872.09
2023-05-23T03:03:31.534Z,99884.41
2023-05-23T03:04:12.068Z,99884.69
2023-05-23T03:04:52.143Z,99868.88
2023-05-23T03:05:32.070Z,99863.91
2023-05-23T03:06:14.489Z,99880.22
2023-05-23T03:06:55.040Z,99864.31
2023-05-23T03:07:35.142Z,99878.22
2023-05-23T03:08:15.060Z,99871.78
2023-05-23T03:08:55.576Z,99870.38
2023-05-23T03:09:36.057Z,99876.97
2023-05-23T03:10:17.198Z,99891.00
2023-05-23T03:10:58.072Z,99877.22
2023-05-23T03:11:38.213Z,99873.81
2023-05-23T03:12:18.025Z,99869.78
2023-05-23T03:13:12.067Z,99882.34
2023-05-23T03:14:06.073Z,99855.22
2023-05-23T03:15:00.054Z,99875.91
2023-05-23T03:15:54.106Z,99883.38
2023-05-23T03:16:34.135Z,99875.06
2023-05-23T03:17:14.389Z,99879.16
2023-05-23T03:17:55.097Z,99866.06
2023-05-23T03:18:35.169Z,99865.19
2023-05-23T03:19:15.084Z,99862.66
2023-05-23T03:19:55.118Z,99859.56
2023-05-23T03:20:36.012Z,99869.44
2023-05-23T03:21:16.130Z,99860.25
2023-05-23T03:21:59.060Z,99859.03
2023-05-23T03:22:39.162Z,99874.66
2023-05-23T03:23:19.030Z,99862.38
2023-05-23T03:23:59.100Z,99871.59
2023-05-23T03:24:39.018Z,99871.41
2023-05-23T03:25:19.120Z,99860.50
2023-05-23T03:26:00.030Z,99860.34
2023-05-23T03:26:40.106Z,99877.19
2023-05-23T03:27:20.027Z,99865.63
2023-05-23T03:28:00.165Z,99867.00
2023-05-23T03:28:40.068Z,99855.91
2023-05-23T03:29:20.141Z,99860.81
2023-05-23T03:30:01.030Z,99854.91
2023-05-23T03:30:41.135Z,99861.66
2023-05-23T03:31:21.102Z,99874.88
2023-05-23T03:32:01.113Z,99880.16
2023-05-23T03:32:41.110Z,99876.44
2023-05-23T03:33:22.153Z,99863.50
2023-05-23T03:34:03.047Z,99867.09
2023-05-23T03:34:43.194Z,99863.13
2023-05-23T03:35:24.049Z,99860.59
2023-05-23T03:36:04.141Z,99869.56
2023-05-23T03:36:46.039Z,99863.13
2023-05-23T03:37:26.121Z,99866.69
2023-05-23T03:38:07.052Z,99871.75
2023-05-23T03:38:47.088Z,99848.84
2023-05-23T03:39:27.012Z,99859.69
2023-05-23T03:40:08.376Z,99867.22
2023-05-23T03:40:48.007Z,99865.16
2023-05-23T03:41:28.109Z,99851.19
2023-05-23T03:42:10.042Z,99847.09
2023-05-23T03:42:50.147Z,99855.09
2023-05-23T03:43:30.044Z,99853.88
2023-05-23T03:44:10.086Z,99873.09
2023-05-23T03:44:49.997Z,99861.50
2023-05-23T03:45:30.137Z,99855.28
2023-05-23T03:46:11.107Z,99854.78
2023-05-23T03:46:51.096Z,99860.38
2023-05-23T03:47:32.017Z,99867.84
2023-05-23T03:48:12.480Z,99866.81
2023-05-23T03:48:52.015Z,99855.38
2023-05-23T03:49:32.132Z,99845.53
2023-05-23T03:50:14.024Z,99864.84
2023-05-23T03:50:54.151Z,99857.50
2023-05-23T03:51:35.011Z,99863.97
2023-05-23T03:52:15.141Z,99857.47
2023-05-23T03:52:54.991Z,99860.09
2023-05-23T03:53:36.653Z,99858.34
2023-05-23T03:54:18.052Z,99859.50
2023-05-23T03:54:58.132Z,99860.25
2023-05-23T03:55:39.199Z,99862.63
2023-05-23T03:56:19.145Z,99874.19
2023-05-23T03:56:58.992Z,99842.97
2023-05-23T03:57:39.082Z,99859.28
2023-05-23T03:58:19.995Z,99847.03
2023-05-23T03:59:01.370Z,99847.72
2023-05-23T03:59:43.000Z,99851.41
2023-05-23T04:00:24.084Z,99871.09
2023-05-23T04:01:04.056Z,99852.44
2023-05-23T04:01:44.130Z,99855.81
2023-05-23T04:02:25.061Z,99849.91
2023-05-23T04:03:05.166Z,99869.75
2023-05-23T04:03:45.009Z,99857.88
2023-05-23T04:04:26.133Z,99849.31
2023-05-23T04:05:07.018Z,99864.25
2023-05-23T04:05:47.067Z,99848.59
2023-05-23T04:06:28.980Z,99853.31
2023-05-23T04:07:09.924Z,99847.88
2023-05-23T04:07:50.989Z,99868.25
2023-05-23T04:08:33.948Z,99843.94
2023-05-23T04:09:13.989Z,99846.66
2023-05-23T04:09:54.110Z,99872.97
2023-05-23T04:10:35.009Z,99861.34
2023-05-23T04:11:15.088Z,99849.16
2023-05-23T04:11:55.982Z,99874.97
2023-05-23T04:12:37.060Z,99867.97
2023-05-23T04:13:18.011Z,99853.38
2023-05-23T04:13:58.291Z,99853.19
2023-05-23T04:14:40.005Z,99866.69
2023-05-23T04:15:21.460Z,99867.16
2023-05-23T04:16:04.083Z,99871.22
2023-05-23T04:16:45.208Z,99851.81
2023-05-23T04:17:26.028Z,99848.88
2023-05-23T04:18:09.227Z,99852.78
2023-05-23T04:18:49.988Z,99855.91
2023-05-23T04:19:30.142Z,99871.75
2023-05-23T04:20:14.003Z,99853.09
2023-05-23T04:20:55.074Z,99857.44
2023-05-23T04:21:35.076Z,99860.09
2023-05-23T04:22:15.057Z,99848.03
2023-05-23T04:22:55.988Z,99852.19
2023-05-23T04:23:36.772Z,99858.75
2023-05-23T04:24:17.971Z,99860.03
2023-05-23T04:24:58.287Z,99843.81
2023-05-23T04:25:37.978Z,99851.34
2023-05-23T04:26:18.067Z,99850.50
2023-05-23T04:26:59.012Z,99863.41
2023-05-23T04:27:40.628Z,99852.84
2023-05-23T04:28:24.045Z,99848.81
2023-05-23T04:29:04.355Z,99845.03
2023-05-23T04:29:44.980Z,99833.19
2023-05-23T04:30:25.060Z,99845.59
2023-05-23T04:31:06.025Z,99838.53
2023-05-23T04:31:46.387Z,99847.22
2023-05-23T04:32:29.019Z,99861.63
2023-05-23T04:33:10.310Z,99834.66
2023-05-23T04:33:50.035Z,99844.28
2023-05-23T04:34:31.029Z,99844.78
2023-05-23T04:35:14.311Z,99857.50
2023-05-23T04:35:55.082Z,99848.25
2023-05-23T04:36:37.005Z,99840.34
2023-05-23T04:37:17.482Z,99841.69
2023-05-23T04:38:03.005Z,99827.72
2023-05-23T04:38:43.112Z,99852.78
2023-05-23T04:39:23.001Z,99818.13
2023-05-23T04:40:03.863Z,99855.41
2023-05-23T04:40:44.048Z,99839.25
2023-05-23T04:41:24.447Z,99849.41
2023-05-23T04:42:06.056Z,99849.69
2023-05-23T04:42:46.366Z,99853.72
2023-05-23T04:43:27.015Z,99848.94
2023-05-23T04:44:12.068Z,99856.75
2023-05-23T04:44:51.982Z,99855.34
2023-05-23T04:45:33.117Z,99832.91
2023-05-23T04:46:13.024Z,99822.28
2023-05-23T04:46:53.376Z,99833.94
2023-05-23T04:47:37.055Z,99840.81
2023-05-23T04:48:21.495Z,99810.03
2023-05-23T04:49:03.027Z,99835.53
2023-05-23T04:49:44.118Z,99831.31
2023-05-23T04:50:24.969Z,99822.91
2023-05-23T04:51:08.496Z,99834.72
2023-05-23T04:51:49.993Z,99831.69
2023-05-23T04:52:33.253Z,99821.41
2023-05-23T04:53:13.039Z,99836.13
2023-05-23T04:53:54.716Z,99834.50
2023-05-23T04:54:35.021Z,99839.38
2023-05-23T04:55:16.199Z,99829.31
2023-05-23T04:55:56.999Z,99828.88
2023-05-23T04:56:37.126Z,99818.31
2023-05-23T04:57:19.007Z,99819.22
2023-05-23T04:57:59.068Z,99809.34
2023-05-23T04:58:40.026Z,99826.56
2023-05-23T04:59:20.103Z,99811.78
2023-05-23T05:00:01.046Z,99830.34
2023-05-23T05:00:41.435Z,99815.06
2023-05-23T05:01:24.220Z,99816.75
2023-05-23T05:02:06.065Z,99820.13
2023-05-23T05:02:46.040Z,99814.53
2023-05-23T05:03:26.493Z,99815.66
2023-05-23T05:04:08.045Z,99817.72
2023-05-23T05:04:48.059Z,99821.03
2023-05-23T05:05:28.012Z,99807.16
2023-05-23T05:06:10.120Z,99815.56
2023-05-23T05:06:49.974Z,99819.41
2023-05-23T05:07:30.108Z,99800.84
2023-05-23T05:08:10.996Z,99814.44
2023-05-23T05:08:52.491Z,99796.28
2023-05-23T05:09:32.979Z,99789.56
2023-05-23T05:10:16.946Z,99794.13
2023-05-23T05:10:57.965Z,99804.97
2023-05-23T05:11:38.047Z,99812.19
2023-05-23T05:12:18.988Z,99804.63
2023-05-23T05:12:59.103Z,99797.94
2023-05-23T05:13:39.157Z,99796.47
2023-05-23T05:14:19.137Z,99801.56
2023-05-23T05:14:59.993Z,99802.72
2023-05-23T05:15:40.082Z,99803.66
2023-05-23T05:16:21.043Z,99791.69
2023-05-23T05:17:02.906Z,99804.16
2023-05-23T05:17:46.129Z,99797.84
2023-05-23T05:18:29.309Z,99813.31
2023-05-23T05:19:09.049Z,99808.41
2023-05-23T05:19:49.061Z,99792.84
2023-05-23T05:20:29.995Z,99809.78
2023-05-23T05:21:10.021Z,99811.06
2023-05-23T05:21:50.015Z,99792.25
2023-05-23T05:22:30.044Z,99794.00
2023-05-23T05:23:09.952Z,99798.91
2023-05-23T05:23:50.032Z,99805.69
2023-05-23T05:24:30.954Z,99800.28
2023-05-23T05:25:12.099Z,99793.00
2023-05-23T05:25:52.979Z,99798.09
2023-05-23T05:26:33.578Z,99802.53
2023-05-23T05:27:15.980Z,99781.16
2023-05-23T05:27:56.029Z,99786.69
2023-05-23T05:28:36.959Z,99777.34
2023-05-23T05:29:17.107Z,99775.25
2023-05-23T05:29:56.961Z,99782.00
2023-05-23T05:30:37.518Z,99784.13
2023-05-23T05:31:22.037Z,99793.00
2023-05-23T05:32:03.348Z,99793.47
2023-05-23T05:32:43.996Z,99785.28
2023-05-23T05:33:19.032Z,99785.56
2023-05-23T05:34:05.940Z,99795.34
2023-05-23T05:34:39.766Z,99781.78
2023-05-23T05:35:26.968Z,99798.97
2023-05-23T05:36:00.732Z,99775.75
2023-05-23T05:36:52.947Z,99786.97
2023-05-23T05:37:26.841Z,99796.72
2023-05-23T05:38:11.044Z,99800.50
2023-05-23T05:38:45.058Z,99796.94
2023-05-23T05:39:18.812Z,99783.44
2023-05-23T05:40:00.966Z,99785.38
2023-05-23T05:40:35.088Z,99782.38
2023-05-23T05:41:09.257Z,99788.00
2023-05-23T05:41:49.965Z,99769.19
2023-05-23T05:42:24.061Z,99790.75
2023-05-23T05:42:57.709Z,99783.16
2023-05-23T05:43:37.996Z,99785.31
2023-05-23T05:44:12.057Z,99807.31
2023-05-23T05:44:45.798Z,99803.59
2023-05-23T05:45:25.979Z,99808.63
2023-05-23T05:46:00.073Z,99786.63
2023-05-23T05:46:34.026Z,99808.63
2023-05-23T05:47:13.987Z,99802.53
2023-05-23T05:47:48.078Z,99799.94
2023-05-23T05:48:22.692Z,99804.44
2023-05-23T05:49:02.971Z,99789.22
2023-05-23T05:49:37.008Z,99799.38
2023-05-23T05:50:11.266Z,99793.94
2023-05-23T05:50:51.953Z,99792.47
2023-05-23T05:51:28.201Z,99800.31
2023-05-23T05:52:04.662Z,99807.03
2023-05-23T05:52:45.950Z,99801.06
2023-05-23T05:53:21.041Z,99812.94
2023-05-23T05:53:57.829Z,99789.69
2023-05-23T05:54:37.965Z,99783.38
2023-05-23T05:55:17.052Z,99806.84
2023-05-23T05:55:51.648Z,99808.34
2023-05-23T05:56:33.232Z,99784.88
2023-05-23T05:57:07.112Z,99792.75
2023-05-23T05:57:41.926Z,99791.31
2023-05-23T05:58:21.933Z,99793.59
2023-05-23T05:58:57.280Z,99795.28
2023-05-23T05:59:32.599Z,99799.84
2023-05-23T06:00:20.976Z,99797.34
2023-05-23T06:00:55.068Z,99795.44
2023-05-23T06:01:28.771Z,99778.94
2023-05-23T06:02:09.965Z,99797.97
2023-05-23T06:02:44.228Z,99791.28
2023-05-23T06:03:21.382Z,99772.44
2023-05-23T06:04:03.256Z,99774.34
2023-05-23T06:04:38.115Z,99791.72
2023-05-23T06:05:16.629Z,99784.97
2023-05-23T06:05:56.973Z,99766.38
2023-05-23T06:06:32.302Z,99788.34
2023-05-23T06:07:06.679Z,99796.19
2023-05-23T06:07:46.920Z,99782.91
2023-05-23T06:08:21.034Z,99768.13
2023-05-23T06:08:54.710Z,99788.84
2023-05-23T06:09:43.891Z,99786.34
2023-05-23T06:10:18.032Z,99788.03
2023-05-23T06:11:04.957Z,99780.22
2023-05-23T06:11:41.153Z,99779.16
2023-05-23T06:12:27.926Z,99783.38
2023-05-23T06:13:02.150Z,99777.28
2023-05-23T06:13:49.923Z,99776.66
2023-05-23T06:14:30.016Z,99764.41
2023-05-23T06:15:15.154Z,99764.41
2023-05-23T06:15:55.076Z,99770.56
2023-05-23T06:16:34.921Z,99772.84
2023-05-23T06:17:16.387Z,99761.50
2023-05-23T06:17:59.990Z,99773.97
2023-05-23T06:18:41.368Z,99771.22
2023-05-23T06:19:22.010Z,99771.88
2023-05-23T06:20:02.056Z,99768.94
2023-05-23T06:20:42.096Z,99763.66
2023-05-23T06:21:22.116Z,99758.16
2023-05-23T06:22:01.968Z,99747.19
2023-05-23T06:22:43.048Z,99764.06
2023-05-23T06:23:22.910Z,99764.50
2023-05-23T06:24:03.030Z,99764.50
2023-05-23T06:24:51.433Z,99752.25
2023-05-23T06:25:36.041Z,99751.84
2023-05-23T06:26:16.932Z,99762.38
2023-05-23T06:26:57.981Z,99771.69
2023-05-23T06:27:37.918Z,99766.63
2023-05-23T06:28:17.985Z,99769.16
2023-05-23T06:28:57.889Z,99774.63
2023-05-23T06:29:38.020Z,99779.28
2023-05-23T06:30:18.937Z,99754.38
2023-05-23T06:30:59.996Z,99763.66
2023-05-23T06:31:39.981Z,99763.66
2023-05-23T06:32:20.053Z,99766.00
2023-05-23T06:32:59.981Z,99767.47
2023-05-23T06:33:43.216Z,99731.56
2023-05-23T06:34:23.907Z,99764.94
2023-05-23T06:35:05.010Z,99765.97
2023-05-23T06:35:44.939Z,99757.34
2023-05-23T06:36:30.401Z,99752.25
2023-05-23T06:37:11.915Z,99762.59
2023-05-23T06:37:52.047Z,99763.44
2023-05-23T06:38:35.942Z,99744.47
2023-05-23T06:39:16.978Z,99749.50
2023-05-23T06:39:56.895Z,99741.28
2023-05-23T06:40:37.011Z,99762.38
2023-05-23T06:41:16.912Z,99763.44
2023-05-23T06:41:57.106Z,99757.72
2023-05-23T06:42:45.901Z,99745.91
2023-05-23T06:43:26.980Z,99752.44
2023-05-23T06:44:07.005Z,99743.16
2023-05-23T06:44:46.983Z,99763.22
2023-05-23T06:45:26.909Z,99752.03
2023-05-23T06:46:07.128Z,99759.81
2023-05-23T06:46:49.879Z,99760.25
2023-05-23T06:47:31.014Z,99756.91
2023-05-23T06:48:11.903Z,99750.09
2023-05-23T06:49:02.652Z,99747.81
2023-05-23T06:49:46.919Z,99765.97
2023-05-23T06:50:29.899Z,99768.09
2023-05-23T06:51:09.906Z,99759.44
2023-05-23T06:51:51.153Z,99763.66
2023-05-23T06:52:31.880Z,99761.94
2023-05-23T06:53:12.022Z,99749.72
2023-05-23T06:53:51.885Z,99741.84
2023-05-23T06:54:31.985Z,99759.84
2023-05-23T06:55:12.883Z,99755.41
2023-05-23T06:55:54.013Z,99769.94
2023-05-23T06:56:33.888Z,99758.94
2023-05-23T06:57:14.037Z,99771.59
2023-05-23T06:57:53.915Z,99754.91
2023-05-23T06:58:37.410Z,99772.41
2023-05-23T06:59:17.897Z,99747.09
2023-05-23T06:59:58.990Z,99761.03
2023-05-23T07:00:39.030Z,99777.06
2023-05-23T07:01:18.982Z,99770.28
2023-05-23T07:02:01.900Z,99742.00
2023-05-23T07:02:45.808Z,99771.56
2023-05-23T07:03:25.905Z,99748.31
2023-05-23T07:04:07.014Z,99760.09
2023-05-23T07:04:46.886Z,99766.44
2023-05-23T07:05:27.573Z,99763.25
2023-05-23T07:06:07.919Z,99740.69
2023-05-23T07:06:48.038Z,99749.09
2023-05-23T07:07:30.284Z,99749.28
2023-05-23T07:08:11.434Z,99749.50
2023-05-23T07:08:54.905Z,99754.56
2023-05-23T07:09:34.999Z,99751.16
2023-05-23T07:10:15.908Z,99760.06
2023-05-23T07:10:55.992Z,99737.41
2023-05-23T07:11:35.894Z,99753.25
2023-05-23T07:12:16.969Z,99741.88
2023-05-23T07:12:56.934Z,99750.06
2023-05-23T07:13:37.006Z,99742.66
2023-05-23T07:14:23.934Z,99732.97
2023-05-23T07:14:57.965Z,99742.44
2023-05-23T07:15:45.188Z,99747.06
2023-05-23T07:16:20.121Z,99749.81
2023-05-23T07:16:59.933Z,99744.09
2023-05-23T07:17:40.040Z,99737.97
2023-05-23T07:18:20.894Z,99722.34
2023-05-23T07:19:05.426Z,99729.13
2023-05-23T07:19:45.893Z,99725.75
2023-05-23T07:20:27.000Z,99734.81
2023-05-23T07:21:06.853Z,99736.22
2023-05-23T07:21:49.931Z,99728.41
2023-05-23T07:22:29.950Z,99706.84
2023-05-23T07:23:09.969Z,99726.03
2023-05-23T07:23:49.888Z,99729.66
2023-05-23T07:24:31.031Z,99726.44
2023-05-23T07:25:12.896Z,99727.28
2023-05-23T07:26:02.023Z,99729.50
2023-05-23T07:26:42.845Z,99727.38
2023-05-23T07:27:22.957Z,99731.53
2023-05-23T07:28:03.855Z,99721.78
2023-05-23T07:28:44.009Z,99730.03
2023-05-23T07:29:23.854Z,99725.13
2023-05-23T07:30:04.646Z,99733.13
2023-05-23T07:30:45.939Z,99727.91
2023-05-23T07:31:26.008Z,99720.53
2023-05-23T07:32:06.851Z,99731.88
2023-05-23T07:32:48.319Z,99729.13
2023-05-23T07:33:29.031Z,99742.53
2023-05-23T07:34:10.917Z,99711.03
2023-05-23T07:34:50.857Z,99737.81
2023-05-23T07:35:32.976Z,99732.78
2023-05-23T07:36:13.852Z,99719.28
2023-05-23T07:36:53.964Z,99719.66
2023-05-23T07:37:33.844Z,99734.44
2023-05-23T07:38:13.943Z,99708.47
2023-05-23T07:38:53.855Z,99715.66
2023-05-23T07:39:36.726Z,99734.03
2023-05-23T07:40:17.831Z,99716.31
2023-05-23T07:41:10.753Z,99731.69
2023-05-23T07:41:51.860Z,99731.41
2023-05-23T07:42:37.382Z,99719.56
2023-05-23T07:43:17.856Z,99722.03
2023-05-23T07:44:04.862Z,99715.91
2023-05-23T07:44:58.860Z,99725.13
2023-05-23T07:45:52.893Z,99713.94
2023-05-23T07:46:46.899Z,99707.06
2023-05-23T07:47:40.910Z,99729.09
2023-05-23T07:48:34.865Z,99712.81
2023-05-23T07:49:21.868Z,99721.50
2023-05-23T07:49:56.183Z,99722.28
2023-05-23T07:50:42.852Z,99720.38
2023-05-23T07:51:18.872Z,99716.16
2023-05-23T07:52:07.826Z,99718.09
2023-05-23T07:52:42.618Z,99724.00
2023-05-23T07:53:29.827Z,99717.59
2023-05-23T07:54:04.120Z,99712.34
2023-05-23T07:54:43.909Z,99712.16
2023-05-23T07:55:24.449Z,99716.69
2023-05-23T07:56:04.847Z,99720.69
2023-05-23T07:56:45.192Z,99712.31
2023-05-23T07:57:25.856Z,99715.31
2023-05-23T07:58:06.025Z,99714.66
2023-05-23T07:58:45.825Z,99727.47
2023-05-23T07:59:26.949Z,99715.00
2023-05-23T08:00:06.834Z,99733.78
2023-05-23T08:00:46.946Z,99716.56
2023-05-23T08:01:29.852Z,99725.78
2023-05-23T08:02:09.965Z,99708.44
2023-05-23T08:02:49.856Z,99722.97
2023-05-23T08:03:32.932Z,99720.84
2023-05-23T08:04:13.846Z,99732.41
2023-05-23T08:04:55.149Z,99713.59
2023-05-23T08:05:35.867Z,99724.78
2023-05-23T08:06:15.899Z,99723.22
2023-05-23T08:07:38.907Z,99715.50
2023-05-23T08:08:18.844Z,99724.09
2023-05-23T08:08:58.930Z,99720.47
2023-05-23T08:09:39.837Z,99708.69